Tuesday, January 22, 2019, 4:01 PM EST
Back to Local

KBTV, Burlington International

Location: South Burlington, VT, United States Lat: 44.467
Local Time: 4:01 PM EST (21:01 GMT) Lon: -73.15
Time Zone: US/Eastern Elev: 334 ft

Show me the last for .
Show Decoded

2019-01-22 14:54 METAR KBTV 221954Z 18004KT 10SM SCT200 M12/M22 A3059 RMK AO2 SLP367 T11221217 =
2019-01-22 13:54 METAR KBTV 221854Z 22003KT 10SM SCT200 M13/M22 A3059 RMK AO2 SLP369 T11331222 =
2019-01-22 12:54 METAR KBTV 221754Z 19003KT 10SM SCT200 M14/M23 A3060 RMK AO2 SLP372 4/017 I6000
                 T11441228 11144 21267 58007 =
2019-01-22 11:54 METAR KBTV 221654Z 17007KT 10SM FEW001 M16/M23 A3062 RMK AO2 SLP377 T11561233 =
2019-01-22 10:54 METAR KBTV 221554Z 00000KT 10SM CLR M16/M24 A3061 RMK AO2 SLP375 T11561239 =
2019-01-22 09:54 METAR KBTV 221454Z 00000KT 10SM CLR M19/M24 A3062 RMK AO2 SLP380 I3000 T11941239
                 51020 =
2019-01-22 08:54 METAR KBTV 221354Z 07005KT 10SM CLR M22/M26 A3060 RMK AO2 SLP374 T12221256 =
2019-01-22 07:54 METAR KBTV 221254Z 09003KT 10SM CLR M24/M27 A3059 RMK AO2 SLP369 I1000 T12441272
                 =
2019-01-22 06:54 METAR KBTV 221154Z 09003KT 10SM CLR M26/M28 A3056 RMK AO2 SLP360 4/017 70013
                 T12561283 11178 21256 53035 =
2019-01-22 05:54 METAR KBTV 221054Z 00000KT 10SM CLR M23/M26 A3052 RMK AO2 SLP346 T12281261 $ =
2019-01-22 04:54 METAR KBTV 220954Z 09003KT 10SM CLR M23/M26 A3049 RMK AO2 SLP334 T12281261 $ =
2019-01-22 03:54 METAR KBTV 220854Z 02004KT 10SM CLR M21/M26 A3046 RMK AO2 SLP325 T12111256 51028
                 $ =
2019-01-22 02:54 METAR KBTV 220754Z 03005KT 10SM CLR M21/M25 A3043 RMK AO2 SLP316 T12061250 $ =
2019-01-22 01:54 METAR KBTV 220654Z 01004KT 10SM CLR M19/M24 A3041 RMK AO2 SLP309 T11891239 $ =
2019-01-22 00:54 METAR KBTV 220554Z 34007KT 10SM CLR M18/M24 A3037 RMK AO2 SLP295 T11831239 11161
                 21183 51041 $ =
2019-01-21 23:54 METAR KBTV 220454Z 33013KT 10SM CLR M17/M24 A3034 RMK AO2 SLP284 LAST T11721239
                 411611211 $ =
2019-01-21 22:54 METAR KBTV 220354Z 32013KT 10SM CLR M17/M24 A3031 RMK AO2 SLP272 T11671239 $ =
2019-01-21 21:54 METAR KBTV 220254Z 33005KT 10SM CLR M17/M24 A3025 RMK AO2 SLP254 T11721239 53035
                 $ =
2019-01-21 20:54 METAR KBTV 220154Z 32019G24KT 9SM FEW090 M16/M23 A3021 RMK AO2 SLP241 T11611233
                 $ =
2019-01-21 19:54 METAR KBTV 220054Z 31011G21KT 10SM SCT090 M16/M24 A3018 RMK AO2 SLP230 T11611239
                 $ =
2019-01-21 18:54 METAR KBTV 212354Z 31016G24KT 9SM FEW055 FEW070 BKN090 M17/M24 A3015 RMK AO2
                 SLP219 4/018 60006 T11671239 11167 21183 53034 $ =
2019-01-21 17:54 METAR KBTV 212254Z 29011KT 10SM BKN055 M17/M24 A3011 RMK AO2 SLP207 T11721239 $
                 =
2019-01-21 16:54 METAR KBTV 212154Z 30012G19KT 10SM FEW050 BKN095 M17/M24 A3008 RMK AO2 SNE28
                 SLP195 P0000 T11721239 $ =

Support USWX by starting your Amazon purchase here.